Arbúcies





Hora UTC 19:50
Temperatura 18.7 ºC
Humitat 82.6 %
Pressió 1023.0 hPa
Pluja 0.0 mm
Velocitat vent 6.8 km/h
Direcció vent SW
Radiació solar 0.0 W/m²

Dades diàries 2022-08-19



Hora UTC (hivern +1h; estiu +2h)
Temperatura (ºC) Humitat (%) Pressió (hPa) Velocitat vent (km/h) Precipitació (mm) Radiació solar (W/m²)
Hora UTC Aire Humitat Pressió Vel. Dir. Vel. Max Dir. Intent. màx 5 min. Rad. Sol.
00:05 12.8 93.7 1021.0 6.9 SW 14.1 SW 0.0 0.0
00:10 13.0 93.8 1020.0 6.4 SW 10.6 SW 0.0 0.0
00:15 13.1 93.5 1020.0 6.5 SW 14.5 WSW 0.0 0.0
00:20 13.0 93.1 1021.0 6.9 SW 10.6 SW 0.0 0.0
00:25 13.0 93.4 1020.0 7.9 SW 13.8 SW 0.0 0.0
00:30 13.2 93.4 1020.0 8.5 SW 14.5 SW 0.0 0.0
00:35 13.4 92.9 1020.0 8.3 SW 14.5 WSW 0.0 0.0
00:40 13.3 91.9 1020.0 8.7 SW 12.0 SW 0.0 0.0
00:45 13.3 92.2 1020.0 7.4 SW 13.8 SW 0.0 0.0
00:50 13.4 91.8 1021.0 5.5 SW 9.9 SSW 0.0 0.0
00:55 13.1 91.4 1020.0 4.5 WSW 7.1 SW 0.0 0.0
01:00 12.8 91.7 1020.0 6.0 SW 8.8 WSW 0.0 0.0
01:05 12.7 92.2 1020.0 6.2 SW 8.1 SW 0.0 0.0
01:10 12.6 92.6 1020.0 6.2 SW 9.9 W 0.0 0.0
01:15 12.6 92.9 1020.0 6.5 WSW 12.3 W 0.0 0.0
01:20 12.9 93.5 1021.0 8.1 SW 17.3 SW 0.0 0.0
01:25 13.1 92.8 1020.0 8.2 SW 13.8 SW 0.0 0.0
01:30 13.3 91.9 1020.0 8.3 SW 15.2 SW 0.0 0.0
01:35 13.5 90.8 1020.0 8.4 SW 15.2 SSW 0.0 0.0
01:40 13.6 89.7 1020.0 8.2 SW 15.9 SW 0.0 0.0
01:45 13.7 88.3 1020.0 10.4 SW 17.3 SW 0.0 0.0
01:50 13.7 87.4 1020.0 13.6 SW 20.5 WSW 0.0 0.0
01:55 13.9 86.7 1020.0 14.5 SW 21.2 SSW 0.0 0.0
02:00 14.0 85.3 1020.0 9.8 SW 16.6 SW 0.0 0.0
02:05 14.1 84.3 1020.0 9.1 SW 14.1 SW 0.0 0.0
02:10 14.0 84.3 1020.0 7.2 SW 11.3 WSW 0.0 0.0
02:15 13.6 86.0 1020.0 8.8 SSW 12.0 SW 0.0 0.0
02:20 13.1 88.3 1021.0 4.6 WSW 11.6 SSW 0.0 0.0
02:25 13.1 90.4 1020.0 12.5 SSW 19.4 SSW 0.0 0.0
02:30 13.4 89.8 1020.0 12.3 SSW 18.3 SSW 0.0 0.0
02:35 13.4 89.5 1020.0 11.6 SW 16.9 SSW 0.0 0.0
02:40 13.5 89.9 1020.0 12.0 SW 16.2 SW 0.0 0.0
02:45 13.7 88.8 1020.0 13.1 SW 18.0 SW 0.0 0.0
02:50 13.9 87.4 1021.0 11.6 SW 16.9 SW 0.0 0.0
02:55 14.0 86.5 1020.0 11.0 SW 16.9 SW 0.0 0.0
03:00 14.1 86.1 1020.0 12.1 SW 16.6 SW 0.0 0.0
03:05 14.2 85.0 1020.0 12.7 SSW 17.6 SSW 0.0 0.0
03:10 14.3 84.0 1020.0 11.8 SSW 16.2 SSW 0.0 0.0
03:15 14.5 82.9 1020.0 10.7 SSW 15.9 SW 0.0 0.0
03:20 14.4 83.0 1021.0 8.8 SW 13.4 SW 0.0 0.0
03:25 13.9 85.6 1020.0 7.8 SW 11.6 WSW 0.0 0.0
03:30 13.7 88.0 1020.0 7.6 SW 11.6 SW 0.0 0.0
03:35 13.8 89.0 1020.0 6.3 SW 12.3 SW 0.0 0.0
03:40 14.1 88.7 1020.0 7.3 SW 14.1 WSW 0.0 0.0
03:45 14.6 86.6 1020.0 6.2 SW 11.6 WSW 0.0 0.0
03:50 15.2 81.9 1021.0 7.5 SW 14.8 WSW 0.0 0.0
03:55 15.6 77.8 1020.0 6.6 SW 11.3 SW 0.0 0.0
04:00 15.8 76.1 1020.0 7.3 SSW 10.6 SSW 0.0 0.0
04:05 15.7 76.0 1020.0 8.1 SW 12.0 SW 0.0 0.0
04:10 14.6 81.5 1021.0 9.8 SW 14.5 SW 0.0 0.0
04:15 14.2 86.0 1020.0 11.8 SW 16.6 SSW 0.0 0.0
04:20 14.2 87.4 1021.0 7.8 SW 12.7 WSW 0.0 0.0
04:25 14.0 88.0 1021.0 4.4 SW 9.5 WSW 0.0 0.0
04:30 14.1 88.9 1021.0 7.2 SW 13.8 SSW 0.0 0.0
04:35 14.0 89.1 1021.0 7.3 SW 12.7 SSW 0.0 0.0
04:40 14.0 89.4 1021.0 3.7 W 8.1 WSW 0.0 0.0
04:45 13.9 89.7 1021.0 2.8 W 4.9 W 0.0 0.0
04:50 13.7 89.9 1021.0 3.4 WSW 5.3 WSW 0.0 0.0
04:55 13.6 90.4 1021.0 4.4 SW 6.4 SW 0.0 0.0
05:00 13.5 91.1 1021.0 5.5 SW 9.2 WSW 0.0 0.7
05:05 13.5 91.5 1021.0 6.2 SW 9.5 SSW 0.0 2.2
05:10 13.6 92.1 1021.0 5.0 WSW 10.9 SW 0.0 3.7
05:15 13.8 91.4 1021.0 3.9 SW 6.4 SW 0.0 5.1
05:20 13.7 90.9 1021.0 5.7 SW 8.8 SW 0.0 7.8
05:25 13.7 91.3 1021.0 8.2 SW 17.3 SW 0.0 12.5
05:30 14.2 89.5 1021.0 10.1 SW 16.2 SSW 0.0 38.6
05:35 14.8 83.4 1021.0 10.8 SW 20.1 SSW 0.0 52.4
05:40 15.3 77.6 1021.0 9.0 SW 15.5 SW 0.0 64.4
05:45 15.4 77.5 1022.0 6.7 SW 14.5 SSW 0.0 76.0
05:50 15.5 77.6 1022.0 4.3 SW 11.6 W 0.0 88.9
05:55 15.8 74.5 1021.0 5.7 SW 12.3 SSW 0.0 104.0
06:00 16.2 72.2 1021.0 10.7 SSW 14.8 SSW 0.0 117.7
06:05 16.2 72.7 1021.0 7.8 SW 13.1 SW 0.0 131.4
06:10 15.7 77.5 1021.0 5.5 SW 8.5 SW 0.0 145.3
06:15 15.5 80.5 1022.0 6.7 SW 10.9 SW 0.0 162.4
06:20 15.6 77.7 1022.0 8.9 SW 15.5 WSW 0.0 181.1
06:25 16.0 75.8 1021.0 6.7 SW 12.3 WSW 0.0 197.4
06:30 16.1 76.1 1021.0 7.0 SW 13.4 SW 0.0 213.3
06:35 16.4 74.8 1021.0 9.0 SW 15.2 SSW 0.0 229.5
06:40 16.7 72.9 1021.0 8.8 SW 14.1 SW 0.0 246.9
06:45 17.2 70.4 1022.0 9.8 SW 19.1 SW 0.0 263.5
06:50 17.6 68.8 1022.0 9.0 SSW 13.8 SSW 0.0 280.5
06:55 18.0 68.9 1021.0 6.0 SW 9.9 SW 0.0 296.4
07:00 18.3 70.9 1022.0 5.3 SW 8.1 SW 0.0 311.8
07:05 18.2 71.9 1022.0 5.3 SW 9.5 WSW 0.0 327.5
07:10 18.7 68.5 1022.0 7.0 SW 13.1 SW 0.0 345.4
07:15 19.3 65.5 1022.0 6.8 SW 10.9 SW 0.0 362.6
07:20 19.7 65.2 1022.0 5.9 SW 9.2 SW 0.0 378.6
07:25 20.1 61.9 1022.0 6.1 SW 13.1 W 0.0 395.1
07:30 20.5 58.7 1022.0 5.4 SW 9.5 SSW 0.0 411.7
07:35 21.2 58.4 1022.0 3.8 SW 8.8 WSW 0.0 426.8
07:40 21.5 58.0 1022.0 3.6 SSW 7.4 S 0.0 442.0
07:45 21.6 56.1 1022.0 3.2 SW 5.6 SW 0.0 458.0
07:50 22.1 56.0 1022.0 1.8 SW 4.6 SSW 0.0 473.1
07:55 22.4 53.2 1022.0 1.3 SW 5.3 SW 0.0 487.2
08:00 22.6 50.6 1021.0 0.1 ESE 1.8 SSE 0.0 502.9
08:05 22.6 48.5 1022.0 0.1 ENE 1.8 ENE 0.0 517.5
08:10 23.4 44.7 1021.0 2.8 ENE 7.1 ENE 0.0 532.3
08:15 23.7 46.0 1022.0 5.4 NE 10.9 ENE 0.0 549.0
08:20 23.6 47.3 1022.0 5.1 NE 10.2 ENE 0.0 565.6
08:25 23.6 44.6 1021.0 5.4 NE 9.5 ENE 0.0 579.9
08:30 23.8 44.5 1022.0 4.0 NE 7.8 NE 0.0 594.5
08:35 23.7 41.4 1021.0 5.0 ENE 8.1 ENE 0.0 569.8
08:40 23.8 42.6 1021.0 4.2 ENE 8.1 NE 0.0 593.3
08:45 23.7 42.6 1022.0 7.2 NE 10.9 NE 0.0 641.2
08:50 23.8 43.6 1022.0 6.4 NE 11.3 ENE 0.0 654.0
08:55 24.3 44.0 1021.0 4.0 ENE 9.5 NE 0.0 665.1
09:00 24.3 40.5 1022.0 6.9 ENE 10.6 ENE 0.0 679.5
09:05 24.4 43.5 1022.0 6.7 NE 14.8 NE 0.0 691.7
09:10 24.4 45.8 1022.0 5.3 NE 14.8 NE 0.0 704.9
09:15 24.5 46.7 1022.0 7.0 NE 13.4 NE 0.0 717.5
09:20 24.5 46.3 1022.0 4.3 NE 10.2 NNE 0.0 728.5
09:25 24.4 44.9 1022.0 5.9 ENE 10.9 NE 0.0 741.7
09:30 24.5 44.0 1022.0 7.6 ENE 11.6 ENE 0.0 753.6
09:35 24.7 43.7 1022.0 4.8 NE 10.2 NE 0.0 763.0
09:40 25.0 45.1 1022.0 8.6 NE 15.5 ENE 0.0 774.7
09:45 24.9 45.0 1022.0 5.9 ENE 11.3 NNE 0.0 786.3
09:50 24.9 46.0 1022.0 7.1 ENE 15.9 NE 0.0 796.0
09:55 25.0 46.1 1022.0 7.2 ENE 14.1 ENE 0.0 805.0
10:00 24.8 45.9 1022.0 5.9 ENE 11.3 E 0.0 812.0
10:05 25.0 44.6 1022.0 5.1 E 12.0 ENE 0.0 820.0
10:10 25.1 44.3 1022.0 5.6 E 12.0 ENE 0.0 829.0
10:15 25.1 43.1 1022.0 6.5 NE 12.3 NNE 0.0 837.0
10:20 25.2 44.0 1022.0 7.3 NE 13.4 NE 0.0 843.0
10:25 25.5 43.4 1022.0 4.8 NE 12.0 NE 0.0 851.0
10:30 25.5 41.9 1021.0 3.5 NE 8.5 ESE 0.0 855.0
10:35 25.6 40.5 1021.0 5.9 E 14.1 ENE 0.0 865.0
10:40 25.7 39.7 1021.0 4.1 E 9.9 ENE 0.0 871.0
10:45 25.9 38.9 1022.0 7.5 ENE 14.5 NE 0.0 878.0
10:50 25.9 38.9 1022.0 6.1 E 17.3 NE 0.0 882.0
10:55 26.1 38.9 1021.0 6.8 ENE 13.4 ENE 0.0 889.0
11:00 26.1 39.1 1021.0 4.9 NNE 12.7 NE 0.0 892.0
11:05 26.4 38.5 1021.0 6.5 ENE 15.5 SE 0.0 897.0
11:10 26.2 40.0 1021.0 6.4 NE 14.8 ENE 0.0 904.0
11:15 26.5 39.2 1021.0 9.7 NE 17.3 NE 0.0 908.0
11:20 26.5 40.1 1022.0 6.8 NNE 13.8 NNE 0.0 909.0
11:25 27.0 38.4 1021.0 6.7 NE 13.4 NE 0.0 913.0
11:30 26.9 39.8 1021.0 6.8 NNE 18.0 E 0.0 916.0
11:35 27.2 39.5 1021.0 6.9 NE 12.7 ENE 0.0 918.0
11:40 27.1 39.0 1021.0 5.7 NNE 12.3 E 0.0 916.0
11:45 27.1 38.8 1021.0 7.0 NE 14.1 ENE 0.0 919.0
11:50 27.4 39.6 1022.0 5.3 NE 11.6 ENE 0.0 921.0
11:55 27.5 38.5 1021.0 9.0 NE 20.5 ENE 0.0 922.0
12:00 27.5 38.2 1021.0 8.5 NE 15.2 NNE 0.0 924.0
12:05 27.3 37.6 1021.0 8.8 ENE 14.1 ENE 0.0 928.0
12:10 27.3 37.8 1021.0 7.7 NE 14.8 ESE 0.0 936.0
12:15 27.3 37.2 1021.0 6.7 E 14.1 E 0.0 942.0
12:20 27.6 38.8 1021.0 4.4 NNE 11.3 ENE 0.0 944.0
12:25 28.3 37.0 1021.0 7.3 ENE 15.2 ENE 0.0 886.0
12:30 27.9 36.2 1021.0 7.0 ENE 14.8 ENE 0.0 948.0
12:35 28.2 37.0 1021.0 6.7 ENE 15.2 ENE 0.0 723.6
12:40 27.9 38.0 1021.0 6.4 ENE 16.2 ENE 0.0 691.1
12:45 27.6 37.9 1021.0 6.1 ENE 13.4 E 0.0 676.9
12:50 27.8 41.4 1021.0 7.6 NNE 19.8 ENE 0.0 958.0
12:55 28.1 39.1 1021.0 8.8 NE 17.3 NE 0.0 915.0
13:00 28.2 39.2 1021.0 10.1 NE 22.2 NE 0.0 848.0
13:05 27.8 39.9 1021.0 10.6 NE 21.9 ENE 0.0 850.0
13:10 27.8 38.9 1021.0 7.2 ENE 18.3 ESE 0.0 876.0
13:15 27.7 40.3 1021.0 9.1 NE 18.0 ENE 0.0 867.0
13:20 28.1 39.7 1021.0 6.5 NE 15.2 ENE 0.0 844.0
13:25 28.0 39.6 1021.0 11.4 NE 25.4 ENE 0.0 835.0
13:30 27.7 39.7 1021.0 8.8 NE 16.6 ENE 0.0 878.0
13:35 27.7 40.1 1021.0 8.5 ENE 14.5 ENE 0.0 628.9
13:40 27.3 40.9 1021.0 11.3 ENE 24.0 NE 0.0 319.0
13:45 27.0 42.4 1021.0 5.4 NE 11.6 NE 0.0 558.4
13:50 27.7 42.1 1021.0 5.8 NE 13.1 NNE 0.0 761.4
13:55 27.7 40.7 1021.0 7.0 ENE 13.8 NE 0.0 904.0
14:00 28.0 40.3 1021.0 8.6 ENE 19.1 ENE 0.0 884.0
14:05 27.7 41.1 1021.0 8.7 NE 16.9 ENE 0.0 552.7
14:10 27.8 40.7 1020.0 4.3 ENE 9.9 NE 0.0 452.2
14:15 27.3 41.1 1021.0 6.5 ENE 17.6 E 0.0 703.1
14:20 27.4 41.6 1021.0 8.9 ENE 17.3 ENE 0.0 818.0
14:25 28.1 41.9 1021.0 5.0 NNE 13.4 NE 0.0 877.0
14:30 28.1 40.1 1021.0 6.7 ENE 19.1 ENE 0.0 303.7
14:35 27.3 42.4 1021.0 8.1 NE 17.6 NE 0.0 638.7
14:40 27.5 42.6 1021.0 9.1 NE 19.4 ENE 0.0 451.6
14:45 27.3 43.6 1021.0 5.0 ENE 14.1 ENE 0.0 598.0
14:50 27.6 42.5 1021.0 7.7 NE 15.5 ENE 0.0 550.4
14:55 27.3 43.6 1021.0 9.7 NE 18.7 ENE 0.0 653.5
15:00 27.0 44.1 1021.0 5.9 NE 12.3 ENE 0.0 288.3
15:05 27.1 44.6 1021.0 4.1 ENE 12.3 NE 0.0 519.2
15:10 27.4 43.2 1021.0 7.5 ENE 26.8 NNE 0.0 550.6
15:15 27.3 43.0 1021.0 9.6 NE 21.2 ENE 0.0 534.8
15:20 27.1 43.0 1021.0 8.2 ENE 15.9 ENE 0.0 487.1
15:25 26.9 44.0 1021.0 10.1 ENE 18.0 NE 0.0 490.7
15:30 27.0 44.0 1021.0 8.7 NE 16.9 ENE 0.0 424.4
15:35 26.9 45.0 1021.0 6.4 NE 14.5 ENE 0.0 349.3
15:40 26.6 45.9 1021.0 7.6 NE 16.2 NE 0.0 217.8
15:45 26.1 47.4 1021.0 6.2 NE 15.2 ENE 0.0 229.6
15:50 26.1 48.9 1021.0 7.0 NE 18.0 ENE 0.0 227.1
15:55 26.0 48.8 1021.0 7.1 NE 18.0 NE 0.0 488.7
16:00 26.0 49.3 1021.0 5.9 ENE 15.2 ENE 0.0 466.2
16:05 25.9 50.1 1021.0 5.6 ENE 17.6 NE 0.0 238.0
16:10 25.6 51.0 1021.0 7.7 NE 16.6 ENE 0.0 406.9
16:15 25.7 50.8 1021.0 5.6 E 19.4 ENE 0.0 424.2
16:20 25.5 50.3 1021.0 6.8 ENE 17.3 E 0.0 223.9
16:25 25.2 51.6 1021.0 5.3 ENE 15.2 ENE 0.0 212.8
16:30 25.3 52.1 1021.0 3.2 ENE 7.4 ENE 0.0 397.4
16:35 25.5 51.2 1021.0 7.8 ENE 16.9 ENE 0.0 345.8
16:40 25.4 51.9 1021.0 5.9 ENE 13.4 NE 0.0 353.6
16:45 25.4 51.6 1021.0 5.1 E 12.3 ENE 0.0 339.9
16:50 25.0 52.6 1022.0 4.9 ENE 13.4 NE 0.0 302.2
16:55 24.8 53.1 1021.0 4.7 ENE 10.6 E 0.0 226.2
17:00 24.7 54.3 1021.0 6.8 ENE 14.1 ENE 0.0 200.9
17:05 24.5 55.5 1021.0 6.7 ENE 15.5 ENE 0.0 149.3
17:10 24.3 56.8 1021.0 6.2 NE 13.8 NE 0.0 88.8
17:15 24.3 57.6 1021.0 2.4 NE 7.1 NE 0.0 62.4
17:20 24.2 57.7 1022.0 6.2 ENE 13.1 NE 0.0 49.9
17:25 23.9 58.4 1021.0 6.3 ENE 12.0 ENE 0.0 46.1
17:30 23.8 59.2 1021.0 4.9 NE 10.6 NE 0.0 44.0
17:35 23.6 60.9 1021.0 3.0 NNE 8.1 NE 0.0 41.1
17:40 23.4 61.1 1021.0 3.4 ENE 8.5 E 0.0 38.2
17:45 23.4 61.3 1021.0 3.1 E 9.2 NE 0.0 35.4
17:50 23.3 61.2 1022.0 3.4 ESE 8.1 SE 0.0 33.0
17:55 23.2 61.5 1021.0 1.6 ESE 7.1 SSE 0.0 29.6
18:00 23.1 61.5 1022.0 1.3 E 4.6 ESE 0.0 26.5
18:05 23.0 61.7 1022.0 0.9 SE 4.6 SSE 0.0 23.5
18:10 22.9 63.4 1022.0 0.1 SSE 1.8 SSE 0.0 20.1
18:15 22.6 64.3 1022.0 0.3 SW 2.1 SE 0.0 17.3
18:20 22.1 68.6 1022.0 0.0 WNW 0.4 NW 0.0 13.6
18:25 21.6 70.5 1022.0 0.0 W 0.4 NW 0.0 10.6
18:30 21.4 71.4 1022.0 1.7 WSW 3.9 WSW 0.0 7.7
18:35 21.1 72.5 1022.0 4.5 SW 6.7 SW 0.0 5.4
18:40 20.8 73.6 1022.0 4.8 SW 6.0 SW 0.0 3.5
18:45 20.5 74.2 1022.0 5.4 SW 6.7 SW 0.0 2.0
18:50 20.4 74.9 1023.0 6.4 SW 7.8 SW 0.0 0.5
18:55 20.2 75.4 1022.0 6.0 SW 7.8 SW 0.0 0.0
19:00 20.0 75.8 1022.0 6.3 SW 8.1 SW 0.0 0.0
19:05 19.8 76.7 1022.0 6.0 SW 8.1 SW 0.0 0.0
19:10 19.5 77.6 1022.0 5.6 SW 7.1 SW 0.0 0.0
19:15 19.4 78.5 1023.0 3.8 SW 7.1 SW 0.0 0.0
19:20 19.2 79.1 1023.0 6.6 SW 8.5 SW 0.0 0.0
19:25 19.1 79.7 1022.0 6.4 SW 7.8 SW 0.0 0.0
19:30 19.0 80.3 1022.0 6.8 SW 8.1 SW 0.0 0.0
19:35 18.8 81.1 1023.0 7.2 SW 8.5 SW 0.0 0.0
19:40 18.7 81.8 1023.0 6.3 SW 7.8 SW 0.0 0.0
19:45 18.6 82.5 1023.0 6.9 SW 10.9 WSW 0.0 0.0
19:50 18.7 82.6 1023.0 6.8 SW 10.9 SW 0.0 0.0
Màxima 28.3 93.8 1023.0 14.5 SW 26.8 NNE 0.0 958.0
Mínima 12.6 36.2 1020.0
Total 0.0